sensor_id;sensor_type;location;lat;lon;timestamp;pressure;altitude;pressure_sealevel;temperature;humidity
50852;BME280;43953;45.508;-122.806;2023-11-19T00:00:11;99529.88;;;22.41;42.06
50852;BME280;43953;45.508;-122.806;2023-11-19T00:00:43;99535.69;;;22.40;41.94
50852;BME280;43953;45.508;-122.806;2023-11-19T00:01:14;99534.03;;;22.39;42.15
50852;BME280;43953;45.508;-122.806;2023-11-19T00:01:47;99541.47;;;22.38;42.18
50852;BME280;43953;45.508;-122.806;2023-11-19T00:02:19;99545.03;;;22.39;42.11
50852;BME280;43953;45.508;-122.806;2023-11-19T00:02:51;99544.22;;;22.38;42.12
50852;BME280;43953;45.508;-122.806;2023-11-19T00:03:22;99539.88;;;22.37;41.95
50852;BME280;43953;45.508;-122.806;2023-11-19T00:03:54;99536.31;;;22.37;42.14
50852;BME280;43953;45.508;-122.806;2023-11-19T00:04:26;99537.41;;;22.36;42.18
50852;BME280;43953;45.508;-122.806;2023-11-19T00:04:57;99542.91;;;22.36;42.17
50852;BME280;43953;45.508;-122.806;2023-11-19T00:05:29;99535.81;;;22.35;42.25
50852;BME280;43953;45.508;-122.806;2023-11-19T00:06:01;99540.78;;;22.33;42.23
50852;BME280;43953;45.508;-122.806;2023-11-19T00:06:34;99542.72;;;22.32;42.28
50852;BME280;43953;45.508;-122.806;2023-11-19T00:07:06;99546.28;;;22.33;42.23
50852;BME280;43953;45.508;-122.806;2023-11-19T00:07:38;99543.88;;;22.31;42.21
50852;BME280;43953;45.508;-122.806;2023-11-19T00:08:13;99541.44;;;22.30;42.26
50852;BME280;43953;45.508;-122.806;2023-11-19T00:08:45;99537.88;;;22.29;42.25
50852;BME280;43953;45.508;-122.806;2023-11-19T00:09:17;99543.38;;;22.29;42.21
50852;BME280;43953;45.508;-122.806;2023-11-19T00:09:49;99542.06;;;22.26;42.39
50852;BME280;43953;45.508;-122.806;2023-11-19T00:10:21;99535.47;;;22.28;42.23
50852;BME280;43953;45.508;-122.806;2023-11-19T00:10:52;99542.88;;;22.27;42.48
50852;BME280;43953;45.508;-122.806;2023-11-19T00:11:24;99545.94;;;22.25;42.21
50852;BME280;43953;45.508;-122.806;2023-11-19T00:11:56;99541.59;;;22.24;42.26
50852;BME280;43953;45.508;-122.806;2023-11-19T00:12:29;99543.69;;;22.28;41.97
50852;BME280;43953;45.508;-122.806;2023-11-19T00:13:00;99536.75;;;22.30;42.08
50852;BME280;43953;45.508;-122.806;2023-11-19T00:13:33;99535.81;;;22.35;42.03
50852;BME280;43953;45.508;-122.806;2023-11-19T00:14:05;99541.97;;;22.40;41.81
50852;BME280;43953;45.508;-122.806;2023-11-19T00:14:39;99532.47;;;22.46;41.59
50852;BME280;43953;45.508;-122.806;2023-11-19T00:15:15;99541.88;;;22.54;41.65
50852;BME280;43953;45.508;-122.806;2023-11-19T00:15:49;99537.53;;;22.62;41.53
50852;BME280;43953;45.508;-122.806;2023-11-19T00:16:20;99533.50;;;22.68;41.32
50852;BME280;43953;45.508;-122.806;2023-11-19T00:16:52;99536.91;;;22.74;41.19
50852;BME280;43953;45.508;-122.806;2023-11-19T00:17:24;99531.28;;;22.79;40.94
50852;BME280;43953;45.508;-122.806;2023-11-19T00:17:56;99533.41;;;22.82;40.88
50852;BME280;43953;45.508;-122.806;2023-11-19T00:18:28;99523.22;;;22.82;40.87
50852;BME280;43953;45.508;-122.806;2023-11-19T00:18:59;99531.16;;;22.84;40.84
50852;BME280;43953;45.508;-122.806;2023-11-19T00:19:31;99529.50;;;22.83;40.95
50852;BME280;43953;45.508;-122.806;2023-11-19T00:20:03;99525.16;;;22.82;40.97
50852;BME280;43953;45.508;-122.806;2023-11-19T00:20:37;99532.09;;;22.79;41.11
50852;BME280;43953;45.508;-122.806;2023-11-19T00:21:08;99526.94;;;22.78;41.09
50852;BME280;43953;45.508;-122.806;2023-11-19T00:21:41;99530.00;;;22.76;41.11
50852;BME280;43953;45.508;-122.806;2023-11-19T00:22:12;99524.84;;;22.75;41.36
50852;BME280;43953;45.508;-122.806;2023-11-19T00:22:45;99521.59;;;22.73;41.27
50852;BME280;43953;45.508;-122.806;2023-11-19T00:23:22;99527.09;;;22.73;41.23
50852;BME280;43953;45.508;-122.806;2023-11-19T00:23:54;99523.84;;;22.70;41.24
50852;BME280;43953;45.508;-122.806;2023-11-19T00:24:26;99523.03;;;22.70;41.30
50852;BME280;43953;45.508;-122.806;2023-11-19T00:24:57;99518.69;;;22.69;41.24
50852;BME280;43953;45.508;-122.806;2023-11-19T00:25:29;99523.34;;;22.68;41.26
50852;BME280;43953;45.508;-122.806;2023-11-19T00:26:00;99519.00;;;22.67;41.20
50852;BME280;43953;45.508;-122.806;2023-11-19T00:26:32;99520.13;;;22.66;41.32
50852;BME280;43953;45.508;-122.806;2023-11-19T00:27:04;99515.75;;;22.65;41.37
50852;BME280;43953;45.508;-122.806;2023-11-19T00:27:36;99522.38;;;22.64;41.48
50852;BME280;43953;45.508;-122.806;2023-11-19T00:28:11;99516.38;;;22.62;41.41
50852;BME280;43953;45.508;-122.806;2023-11-19T00:28:42;99520.25;;;22.61;41.54
50852;BME280;43953;45.508;-122.806;2023-11-19T00:29:14;99524.16;;;22.60;41.45
50852;BME280;43953;45.508;-122.806;2023-11-19T00:29:46;99520.91;;;22.58;41.52
50852;BME280;43953;45.508;-122.806;2023-11-19T00:30:18;99520.91;;;22.58;41.47
50852;BME280;43953;45.508;-122.806;2023-11-19T00:30:49;99524.78;;;22.57;41.56
50852;BME280;43953;45.508;-122.806;2023-11-19T00:31:21;99518.47;;;22.57;41.53
50852;BME280;43953;45.508;-122.806;2023-11-19T00:31:53;99514.44;;;22.54;41.64
50852;BME280;43953;45.508;-122.806;2023-11-19T00:32:24;99518.28;;;22.53;41.76
50852;BME280;43953;45.508;-122.806;2023-11-19T00:32:56;99517.81;;;22.51;42.03
50852;BME280;43953;45.508;-122.806;2023-11-19T00:33:28;99513.44;;;22.50;42.03
50852;BME280;43953;45.508;-122.806;2023-11-19T00:34:00;99514.56;;;22.49;41.83
50852;BME280;43953;45.508;-122.806;2023-11-19T00:34:33;99514.88;;;22.47;41.80
50852;BME280;43953;45.508;-122.806;2023-11-19T00:35:05;99516.81;;;22.47;41.89
50852;BME280;43953;45.508;-122.806;2023-11-19T00:35:37;99512.47;;;22.46;41.89
50852;BME280;43953;45.508;-122.806;2023-11-19T00:36:09;99514.72;;;22.44;41.87
50852;BME280;43953;45.508;-122.806;2023-11-19T00:36:40;99509.22;;;22.44;42.01
50852;BME280;43953;45.508;-122.806;2023-11-19T00:37:12;99506.81;;;22.42;41.87
50852;BME280;43953;45.508;-122.806;2023-11-19T00:37:44;99507.13;;;22.41;41.95
50852;BME280;43953;45.508;-122.806;2023-11-19T00:38:16;99504.72;;;22.39;42.07
50852;BME280;43953;45.508;-122.806;2023-11-19T00:38:48;99499.22;;;22.39;41.92
50852;BME280;43953;45.508;-122.806;2023-11-19T00:39:20;99500.34;;;22.38;41.88
50852;BME280;43953;45.508;-122.806;2023-11-19T00:39:52;99505.00;;;22.38;42.11
50852;BME280;43953;45.508;-122.806;2023-11-19T00:40:24;99503.41;;;22.37;42.14
50852;BME280;43953;45.508;-122.806;2023-11-19T00:40:56;99502.59;;;22.36;42.03
50852;BME280;43953;45.508;-122.806;2023-11-19T00:41:27;99505.34;;;22.36;42.10
50852;BME280;43953;45.508;-122.806;2023-11-19T00:41:59;99500.97;;;22.35;42.29
50852;BME280;43953;45.508;-122.806;2023-11-19T00:42:31;99508.09;;;22.36;42.14
50852;BME280;43953;45.508;-122.806;2023-11-19T00:43:02;99511.13;;;22.35;42.19
50852;BME280;43953;45.508;-122.806;2023-11-19T00:43:34;99517.41;;;22.35;42.20
50852;BME280;43953;45.508;-122.806;2023-11-19T00:44:06;99515.00;;;22.34;42.12
50852;BME280;43953;45.508;-122.806;2023-11-19T00:44:37;99520.50;;;22.34;42.22
50852;BME280;43953;45.508;-122.806;2023-11-19T00:45:09;99514.22;;;22.33;42.56
50852;BME280;43953;45.508;-122.806;2023-11-19T00:45:42;99519.69;;;22.33;42.44
50852;BME280;43953;45.508;-122.806;2023-11-19T00:46:14;99520.50;;;22.34;42.29
50852;BME280;43953;45.508;-122.806;2023-11-19T00:46:46;99516.13;;;22.33;42.40
50852;BME280;43953;45.508;-122.806;2023-11-19T00:47:18;99530.97;;;22.32;42.19
50852;BME280;43953;45.508;-122.806;2023-11-19T00:47:51;99529.03;;;22.32;42.35
50852;BME280;43953;45.508;-122.806;2023-11-19T00:48:23;99528.22;;;22.32;42.36
50852;BME280;43953;45.508;-122.806;2023-11-19T00:48:55;99537.25;;;22.32;42.38
50852;BME280;43953;45.508;-122.806;2023-11-19T00:49:26;99533.41;;;22.33;42.44
50852;BME280;43953;45.508;-122.806;2023-11-19T00:49:58;99533.41;;;22.33;42.34
50852;BME280;43953;45.508;-122.806;2023-11-19T00:50:30;99526.78;;;22.34;42.41
50852;BME280;43953;45.508;-122.806;2023-11-19T00:51:02;99536.63;;;22.35;42.43
50852;BME280;43953;45.508;-122.806;2023-11-19T00:51:35;99536.63;;;22.35;42.37
50852;BME280;43953;45.508;-122.806;2023-11-19T00:52:06;99544.03;;;22.35;42.34
50852;BME280;43953;45.508;-122.806;2023-11-19T00:52:39;99544.03;;;22.35;42.43
50852;BME280;43953;45.508;-122.806;2023-11-19T00:53:10;99538.06;;;22.33;42.35
50852;BME280;43953;45.508;-122.806;2023-11-19T00:53:42;99537.75;;;22.34;42.34
50852;BME280;43953;45.508;-122.806;2023-11-19T00:54:14;99532.28;;;22.34;42.30
50852;BME280;43953;45.508;-122.806;2023-11-19T00:54:45;99538.56;;;22.35;42.25
50852;BME280;43953;45.508;-122.806;2023-11-19T00:55:17;99540.50;;;22.34;42.18
50852;BME280;43953;45.508;-122.806;2023-11-19T00:55:49;99526.44;;;22.36;42.36
50852;BME280;43953;45.508;-122.806;2023-11-19T00:56:21;99528.56;;;22.39;42.70
50852;BME280;43953;45.508;-122.806;2023-11-19T00:56:53;99530.38;;;22.43;42.39
50852;BME280;43953;45.508;-122.806;2023-11-19T00:57:24;99526.34;;;22.49;42.20
50852;BME280;43953;45.508;-122.806;2023-11-19T00:57:57;99523.94;;;22.57;42.05
50852;BME280;43953;45.508;-122.806;2023-11-19T00:58:29;99521.88;;;22.62;41.88
50852;BME280;43953;45.508;-122.806;2023-11-19T00:59:01;99515.59;;;22.70;41.73
50852;BME280;43953;45.508;-122.806;2023-11-19T00:59:32;99519.19;;;22.80;41.31
50852;BME280;43953;45.508;-122.806;2023-11-19T01:00:07;99515.94;;;22.86;41.12
50852;BME280;43953;45.508;-122.806;2023-11-19T01:00:49;99514.69;;;22.92;40.95
50852;BME280;43953;45.508;-122.806;2023-11-19T01:01:21;99509.41;;;22.96;40.95
50852;BME280;43953;45.508;-122.806;2023-11-19T01:01:53;99512.63;;;22.98;40.93
50852;BME280;43953;45.508;-122.806;2023-11-19T01:02:25;99501.03;;;23.01;41.11
50852;BME280;43953;45.508;-122.806;2023-11-19T01:02:57;99504.56;;;23.02;41.19
50852;BME280;43953;45.508;-122.806;2023-11-19T01:03:28;99501.81;;;23.02;41.20
50852;BME280;43953;45.508;-122.806;2023-11-19T01:04:00;99505.38;;;23.02;41.14
50852;BME280;43953;45.508;-122.806;2023-11-19T01:04:35;99502.94;;;23.01;41.12
50852;BME280;43953;45.508;-122.806;2023-11-19T01:05:08;99515.84;;;23.00;41.15
50852;BME280;43953;45.508;-122.806;2023-11-19T01:05:41;99515.34;;;22.98;41.17
50852;BME280;43953;45.508;-122.806;2023-11-19T01:06:12;99521.19;;;22.97;41.28
50852;BME280;43953;45.508;-122.806;2023-11-19T01:06:46;99513.25;;;22.95;41.26
50852;BME280;43953;45.508;-122.806;2023-11-19T01:07:17;99517.09;;;22.94;41.37
50852;BME280;43953;45.508;-122.806;2023-11-19T01:07:49;99525.69;;;22.92;41.51
50852;BME280;43953;45.508;-122.806;2023-11-19T01:08:21;99526.78;;;22.91;41.40
50852;BME280;43953;45.508;-122.806;2023-11-19T01:08:53;99529.88;;;22.90;41.43
50852;BME280;43953;45.508;-122.806;2023-11-19T01:09:24;99530.97;;;22.89;41.49
50852;BME280;43953;45.508;-122.806;2023-11-19T01:09:57;99529.66;;;22.86;41.57
50852;BME280;43953;45.508;-122.806;2023-11-19T01:10:29;99536.00;;;22.87;41.83
50852;BME280;43953;45.508;-122.806;2023-11-19T01:11:01;99543.72;;;22.85;41.52
50852;BME280;43953;45.508;-122.806;2023-11-19T01:11:33;99538.53;;;22.83;41.74
50852;BME280;43953;45.508;-122.806;2023-11-19T01:12:05;99532.25;;;22.83;41.71
50852;BME280;43953;45.508;-122.806;2023-11-19T01:12:37;99540.03;;;22.81;41.62
50852;BME280;43953;45.508;-122.806;2023-11-19T01:13:08;99537.28;;;22.81;41.57
50852;BME280;43953;45.508;-122.806;2023-11-19T01:13:41;99536.78;;;22.79;41.69
50852;BME280;43953;45.508;-122.806;2023-11-19T01:14:13;99532.09;;;22.79;41.67
50852;BME280;43953;45.508;-122.806;2023-11-19T01:14:44;99528.03;;;22.77;41.78
50852;BME280;43953;45.508;-122.806;2023-11-19T01:15:16;99531.59;;;22.77;41.87
50852;BME280;43953;45.508;-122.806;2023-11-19T01:15:50;99530.31;;;22.75;41.54
50852;BME280;43953;45.508;-122.806;2023-11-19T01:16:21;99524.34;;;22.73;41.74
50852;BME280;43953;45.508;-122.806;2023-11-19T01:16:54;99524.63;;;22.71;41.30
50852;BME280;43953;45.508;-122.806;2023-11-19T01:17:25;99529.31;;;22.70;41.25
50852;BME280;43953;45.508;-122.806;2023-11-19T01:17:57;99522.22;;;22.69;41.16
50852;BME280;43953;45.508;-122.806;2023-11-19T01:18:29;99526.09;;;22.68;41.30
50852;BME280;43953;45.508;-122.806;2023-11-19T01:19:00;99526.09;;;22.68;41.40
50852;BME280;43953;45.508;-122.806;2023-11-19T01:19:35;99529.16;;;22.67;41.20
50852;BME280;43953;45.508;-122.806;2023-11-19T01:20:07;99535.78;;;22.66;41.38
50852;BME280;43953;45.508;-122.806;2023-11-19T01:20:43;99543.19;;;22.65;41.37
50852;BME280;43953;45.508;-122.806;2023-11-19T01:21:15;99547.06;;;22.64;41.47
50852;BME280;43953;45.508;-122.806;2023-11-19T01:21:47;99542.72;;;22.63;41.68
50852;BME280;43953;45.508;-122.806;2023-11-19T01:22:19;99548.19;;;22.63;41.59
50852;BME280;43953;45.508;-122.806;2023-11-19T01:22:50;99552.88;;;22.63;41.65
50852;BME280;43953;45.508;-122.806;2023-11-19T01:23:23;99552.53;;;22.64;41.72
50852;BME280;43953;45.508;-122.806;2023-11-19T01:23:54;99561.28;;;22.66;41.66
50852;BME280;43953;45.508;-122.806;2023-11-19T01:24:26;99562.88;;;22.67;41.64
50852;BME280;43953;45.508;-122.806;2023-11-19T01:24:59;99557.91;;;22.69;41.68
50852;BME280;43953;45.508;-122.806;2023-11-19T01:25:31;99563.56;;;22.73;41.72
50852;BME280;43953;45.508;-122.806;2023-11-19T01:26:03;99571.94;;;22.77;41.55
50852;BME280;43953;45.508;-122.806;2023-11-19T01:26:36;99580.69;;;22.79;41.36
50852;BME280;43953;45.508;-122.806;2023-11-19T01:27:08;99581.19;;;22.81;41.70
50852;BME280;43953;45.508;-122.806;2023-11-19T01:27:39;99580.84;;;22.82;41.62
50852;BME280;43953;45.508;-122.806;2023-11-19T01:28:11;99577.81;;;22.84;41.33
50852;BME280;43953;45.508;-122.806;2023-11-19T01:28:43;99584.56;;;22.86;41.44
50852;BME280;43953;45.508;-122.806;2023-11-19T01:29:16;99574.09;;;22.88;41.30
50852;BME280;43953;45.508;-122.806;2023-11-19T01:29:47;99570.22;;;22.89;41.18
50852;BME280;43953;45.508;-122.806;2023-11-19T01:30:19;99580.38;;;22.89;41.05
50852;BME280;43953;45.508;-122.806;2023-11-19T01:30:51;99576.03;;;22.88;40.96
50852;BME280;43953;45.508;-122.806;2023-11-19T01:31:23;99581.50;;;22.88;41.15
50852;BME280;43953;45.508;-122.806;2023-11-19T01:31:54;99581.00;;;22.86;41.20
50852;BME280;43953;45.508;-122.806;2023-11-19T01:32:26;99584.25;;;22.88;41.22
50852;BME280;43953;45.508;-122.806;2023-11-19T01:32:58;99585.69;;;22.85;41.07
50852;BME280;43953;45.508;-122.806;2023-11-19T01:33:29;99580.53;;;22.84;41.16
50852;BME280;43953;45.508;-122.806;2023-11-19T01:34:01;99583.59;;;22.82;41.14
50852;BME280;43953;45.508;-122.806;2023-11-19T01:34:33;99586.34;;;22.82;41.11
50852;BME280;43953;45.508;-122.806;2023-11-19T01:35:05;99583.94;;;22.81;41.21
50852;BME280;43953;45.508;-122.806;2023-11-19T01:35:37;99583.09;;;22.80;41.27
50852;BME280;43953;45.508;-122.806;2023-11-19T01:36:09;99578.44;;;22.81;41.17
50852;BME280;43953;45.508;-122.806;2023-11-19T01:36:41;99581.50;;;22.79;41.25
50852;BME280;43953;45.508;-122.806;2023-11-19T01:37:12;99574.06;;;22.80;41.17
50852;BME280;43953;45.508;-122.806;2023-11-19T01:37:45;99575.19;;;22.79;41.34
50852;BME280;43953;45.508;-122.806;2023-11-19T01:38:17;99573.25;;;22.79;41.25
50852;BME280;43953;45.508;-122.806;2023-11-19T01:38:48;99570.50;;;22.79;41.41
50852;BME280;43953;45.508;-122.806;2023-11-19T01:39:21;99567.47;;;22.81;42.32
50852;BME280;43953;45.508;-122.806;2023-11-19T01:39:53;99565.34;;;22.86;41.97
50852;BME280;43953;45.508;-122.806;2023-11-19T01:40:25;99561.56;;;22.96;41.72
50852;BME280;43953;45.508;-122.806;2023-11-19T01:40:57;99559.63;;;23.05;41.64
50852;BME280;43953;45.508;-122.806;2023-11-19T01:41:29;99566.75;;;23.15;41.47
50852;BME280;43953;45.508;-122.806;2023-11-19T01:42:00;99560.97;;;23.25;41.30
50852;BME280;43953;45.508;-122.806;2023-11-19T01:42:41;99560.31;;;23.37;41.08
50852;BME280;43953;45.508;-122.806;2023-11-19T01:43:37;99560.50;;;23.49;41.16
50852;BME280;43953;45.508;-122.806;2023-11-19T01:44:09;99560.94;;;23.60;40.83
50852;BME280;43953;45.508;-122.806;2023-11-19T01:44:56;99560.66;;;23.70;40.71
50852;BME280;43953;45.508;-122.806;2023-11-19T01:45:30;99564.84;;;23.76;40.60
50852;BME280;43953;45.508;-122.806;2023-11-19T01:46:02;99564.53;;;23.78;40.53
50852;BME280;43953;45.508;-122.806;2023-11-19T01:46:38;99564.53;;;23.78;40.59
50852;BME280;43953;45.508;-122.806;2023-11-19T01:47:11;99569.22;;;23.77;40.61
50852;BME280;43953;45.508;-122.806;2023-11-19T01:47:43;99562.91;;;23.77;40.37
50852;BME280;43953;45.508;-122.806;2023-11-19T01:48:15;99563.56;;;23.74;40.41
50852;BME280;43953;45.508;-122.806;2023-11-19T01:48:47;99565.03;;;23.71;40.85
50852;BME280;43953;45.508;-122.806;2023-11-19T01:49:19;99562.09;;;23.68;40.56
50852;BME280;43953;45.508;-122.806;2023-11-19T01:49:51;99562.75;;;23.65;40.71
50852;BME280;43953;45.508;-122.806;2023-11-19T01:50:26;99573.22;;;23.62;40.99
50852;BME280;43953;45.508;-122.806;2023-11-19T01:50:59;99565.66;;;23.59;41.05
50852;BME280;43953;45.508;-122.806;2023-11-19T01:51:32;99567.44;;;23.55;41.28
50852;BME280;43953;45.508;-122.806;2023-11-19T01:52:05;99568.53;;;23.54;41.16
50852;BME280;43953;45.508;-122.806;2023-11-19T01:52:37;99570.03;;;23.52;41.04
50852;BME280;43953;45.508;-122.806;2023-11-19T01:53:09;99569.53;;;23.50;40.90
50852;BME280;43953;45.508;-122.806;2023-11-19T01:53:41;99563.88;;;23.46;41.01
50852;BME280;43953;45.508;-122.806;2023-11-19T01:54:13;99555.94;;;23.45;41.08
50852;BME280;43953;45.508;-122.806;2023-11-19T01:54:46;99557.09;;;23.44;41.19
50852;BME280;43953;45.508;-122.806;2023-11-19T01:55:19;99560.97;;;23.43;41.08
50852;BME280;43953;45.508;-122.806;2023-11-19T01:55:52;99556.94;;;23.40;41.35
50852;BME280;43953;45.508;-122.806;2023-11-19T01:56:24;99566.28;;;23.39;41.27
50852;BME280;43953;45.508;-122.806;2023-11-19T01:56:57;99563.06;;;23.37;41.30
50852;BME280;43953;45.508;-122.806;2023-11-19T01:57:29;99560.63;;;23.35;41.39
50852;BME280;43953;45.508;-122.806;2023-11-19T01:58:01;99561.78;;;23.34;41.37
50852;BME280;43953;45.508;-122.806;2023-11-19T01:58:33;99554.97;;;23.32;41.36
50852;BME280;43953;45.508;-122.806;2023-11-19T01:59:05;99549.50;;;23.32;41.39
50852;BME280;43953;45.508;-122.806;2023-11-19T01:59:38;99553.38;;;23.31;41.44
50852;BME280;43953;45.508;-122.806;2023-11-19T02:00:10;99554.81;;;23.28;41.43
50852;BME280;43953;45.508;-122.806;2023-11-19T02:00:44;99558.69;;;23.27;41.77
50852;BME280;43953;45.508;-122.806;2023-11-19T02:01:17;99552.38;;;23.27;41.66
50852;BME280;43953;45.508;-122.806;2023-11-19T02:01:49;99553.53;;;23.26;41.73
50852;BME280;43953;45.508;-122.806;2023-11-19T02:02:22;99558.22;;;23.25;41.82
50852;BME280;43953;45.508;-122.806;2023-11-19T02:02:54;99564.00;;;23.24;42.12
50852;BME280;43953;45.508;-122.806;2023-11-19T02:03:25;99543.19;;;23.23;42.37
50852;BME280;43953;45.508;-122.806;2023-11-19T02:04:01;99547.88;;;23.22;42.30
50852;BME280;43953;45.508;-122.806;2023-11-19T02:04:33;99551.44;;;23.23;42.13
50852;BME280;43953;45.508;-122.806;2023-11-19T02:05:06;99551.72;;;23.21;42.04
50852;BME280;43953;45.508;-122.806;2023-11-19T02:05:39;99552.53;;;23.22;42.07
50852;BME280;43953;45.508;-122.806;2023-11-19T02:06:11;99549.31;;;23.20;42.17
50852;BME280;43953;45.508;-122.806;2023-11-19T02:06:43;99552.06;;;23.20;42.05
50852;BME280;43953;45.508;-122.806;2023-11-19T02:07:16;99547.69;;;23.19;42.22
50852;BME280;43953;45.508;-122.806;2023-11-19T02:07:51;99546.06;;;23.17;42.46
50852;BME280;43953;45.508;-122.806;2023-11-19T02:08:23;99548.81;;;23.17;42.50
50852;BME280;43953;45.508;-122.806;2023-11-19T02:08:54;99546.06;;;23.17;42.42
50852;BME280;43953;45.508;-122.806;2023-11-19T02:09:26;99544.94;;;23.19;42.34
50852;BME280;43953;45.508;-122.806;2023-11-19T02:09:58;99541.72;;;23.16;42.35
50852;BME280;43953;45.508;-122.806;2023-11-19T02:10:31;99543.66;;;23.16;42.35
50852;BME280;43953;45.508;-122.806;2023-11-19T02:11:03;99538.19;;;23.16;42.56
50852;BME280;43953;45.508;-122.806;2023-11-19T02:11:35;99538.97;;;23.16;42.65
50852;BME280;43953;45.508;-122.806;2023-11-19T02:12:07;99542.53;;;23.17;42.46
50852;BME280;43953;45.508;-122.806;2023-11-19T02:12:40;99537.03;;;23.17;42.64
50852;BME280;43953;45.508;-122.806;2023-11-19T02:13:15;99548.03;;;23.17;42.64
50852;BME280;43953;45.508;-122.806;2023-11-19T02:13:47;99540.09;;;23.15;42.58
50852;BME280;43953;45.508;-122.806;2023-11-19T02:14:23;99546.41;;;23.16;42.68
50852;BME280;43953;45.508;-122.806;2023-11-19T02:14:55;99546.41;;;23.16;42.68
50852;BME280;43953;45.508;-122.806;2023-11-19T02:15:27;99553.00;;;23.15;42.71
50852;BME280;43953;45.508;-122.806;2023-11-19T02:15:59;99552.72;;;23.16;43.12
50852;BME280;43953;45.508;-122.806;2023-11-19T02:16:30;99559.00;;;23.17;43.13
50852;BME280;43953;45.508;-122.806;2023-11-19T02:17:02;99552.72;;;23.16;43.06
50852;BME280;43953;45.508;-122.806;2023-11-19T02:17:34;99558.19;;;23.16;42.99
50852;BME280;43953;45.508;-122.806;2023-11-19T02:18:25;99545.59;;;23.15;42.92
50852;BME280;43953;45.508;-122.806;2023-11-19T02:18:59;99546.72;;;23.14;43.15
50852;BME280;43953;45.508;-122.806;2023-11-19T02:19:30;99549.47;;;23.14;43.81
50852;BME280;43953;45.508;-122.806;2023-11-19T02:20:03;99548.31;;;23.15;43.53
50852;BME280;43953;45.508;-122.806;2023-11-19T02:20:37;99542.84;;;23.15;43.59
50852;BME280;43953;45.508;-122.806;2023-11-19T02:21:09;99544.78;;;23.15;43.19
50852;BME280;43953;45.508;-122.806;2023-11-19T02:21:41;99547.53;;;23.15;43.30
50852;BME280;43953;45.508;-122.806;2023-11-19T02:22:13;99545.59;;;23.15;43.44
50852;BME280;43953;45.508;-122.806;2023-11-19T02:22:46;99551.06;;;23.15;43.48
50852;BME280;43953;45.508;-122.806;2023-11-19T02:23:19;99541.72;;;23.16;43.62
50852;BME280;43953;45.508;-122.806;2023-11-19T02:23:51;99549.97;;;23.16;43.49
50852;BME280;43953;45.508;-122.806;2023-11-19T02:24:25;99545.59;;;23.15;43.38
50852;BME280;43953;45.508;-122.806;2023-11-19T02:25:03;99544.47;;;23.16;43.75
50852;BME280;43953;45.508;-122.806;2023-11-19T02:25:36;99554.31;;;23.17;43.67
50852;BME280;43953;45.508;-122.806;2023-11-19T02:26:22;99547.22;;;23.16;43.75
50852;BME280;43953;45.508;-122.806;2023-11-19T02:27:10;99553.19;;;23.19;44.00
50852;BME280;43953;45.508;-122.806;2023-11-19T02:27:55;99553.19;;;23.19;43.87
50852;BME280;43953;45.508;-122.806;2023-11-19T02:28:27;99555.47;;;23.16;43.60
50852;BME280;43953;45.508;-122.806;2023-11-19T02:28:58;99568.53;;;23.20;43.50
50852;BME280;43953;45.508;-122.806;2023-11-19T02:29:30;99557.56;;;23.20;43.53
50852;BME280;43953;45.508;-122.806;2023-11-19T02:30:02;99567.41;;;23.21;43.72
50852;BME280;43953;45.508;-122.806;2023-11-19T02:30:37;99580.00;;;23.22;43.77
50852;BME280;43953;45.508;-122.806;2023-11-19T02:31:10;99581.94;;;23.21;43.66
50852;BME280;43953;45.508;-122.806;2023-11-19T02:31:41;99588.22;;;23.22;43.92
50852;BME280;43953;45.508;-122.806;2023-11-19T02:32:15;99581.94;;;23.21;43.66
50852;BME280;43953;45.508;-122.806;2023-11-19T02:32:47;99583.88;;;23.21;43.69
50852;BME280;43953;45.508;-122.806;2023-11-19T02:33:19;99587.44;;;23.21;43.76
50852;BME280;43953;45.508;-122.806;2023-11-19T02:33:51;99582.28;;;23.20;43.50
50852;BME280;43953;45.508;-122.806;2023-11-19T02:34:23;99586.13;;;23.19;43.55
50852;BME280;43953;45.508;-122.806;2023-11-19T02:34:54;99581.78;;;23.17;43.66
50852;BME280;43953;45.508;-122.806;2023-11-19T02:35:27;99584.84;;;23.16;43.59
50852;BME280;43953;45.508;-122.806;2023-11-19T02:35:58;99586.78;;;23.15;43.62
50852;BME280;43953;45.508;-122.806;2023-11-19T02:36:30;99588.41;;;23.16;43.63
50852;BME280;43953;45.508;-122.806;2023-11-19T02:37:03;99585.97;;;23.15;43.70
50852;BME280;43953;45.508;-122.806;2023-11-19T02:37:37;99588.72;;;23.15;43.54
50852;BME280;43953;45.508;-122.806;2023-11-19T02:38:10;99589.03;;;23.13;43.56
50852;BME280;43953;45.508;-122.806;2023-11-19T02:38:42;99589.84;;;23.14;43.50
50852;BME280;43953;45.508;-122.806;2023-11-19T02:39:14;99591.78;;;23.13;43.64
50852;BME280;43953;45.508;-122.806;2023-11-19T02:39:46;99590.97;;;23.13;43.49
50852;BME280;43953;45.508;-122.806;2023-11-19T02:40:17;99592.91;;;23.12;43.63
50852;BME280;43953;45.508;-122.806;2023-11-19T02:40:49;99591.78;;;23.13;43.58
50852;BME280;43953;45.508;-122.806;2023-11-19T02:41:21;99590.00;;;23.17;43.58
50852;BME280;43953;45.508;-122.806;2023-11-19T02:41:52;99590.84;;;23.27;43.53
50852;BME280;43953;45.508;-122.806;2023-11-19T02:42:24;99583.41;;;23.36;43.22
50852;BME280;43953;45.508;-122.806;2023-11-19T02:42:56;99586.97;;;23.45;43.05
50852;BME280;43953;45.508;-122.806;2023-11-19T02:43:28;99574.03;;;23.54;42.73
50852;BME280;43953;45.508;-122.806;2023-11-19T02:44:02;99579.53;;;23.63;42.70
50852;BME280;43953;45.508;-122.806;2023-11-19T02:44:36;99585.06;;;23.72;42.51
50852;BME280;43953;45.508;-122.806;2023-11-19T02:45:08;99588.59;;;23.81;42.33
50852;BME280;43953;45.508;-122.806;2023-11-19T02:45:45;99592.66;;;23.92;42.14
50852;BME280;43953;45.508;-122.806;2023-11-19T02:46:16;99589.44;;;23.99;41.90